Time;durP1;ratioP1;P1;durP2;ratioP2;P2;SDS_P1;SDS_P2;PMS_P1;PMS_P2;Temp;Humidity;BMP_temperature;BMP_pressure;BME280_temperature;BME280_humidity;BME280_pressure;Samples;Min_cycle;Max_cycle;Signal;HPM_P1;HPM_P2
2023/04/28 00:00:19;;;;;;;;;;;11.10;84.60;;;;;;5036293;28;19909;-96
2023/04/28 00:02:47;;;;;;;;;;;11.10;84.60;;;;;;5035453;28;19981;-96
2023/04/28 00:05:14;;;;;;;;;;;11.20;84.80;;;;;;5036867;28;19893;-96
2023/04/28 00:07:49;;;;;;;;;;;11.20;84.40;;;;;;5037054;28;19894;-96
2023/04/28 00:10:15;;;;;;;;;;;11.10;84.10;;;;;;5036918;28;19922;-96
2023/04/28 00:12:50;;;;;;;;;;;10.90;84.70;;;;;;5037678;28;19924;-96
2023/04/28 00:15:22;;;;;;;;;;;11.00;84.70;;;;;;5036899;28;19937;-96
2023/04/28 00:17:55;;;;;;;;;;;11.10;84.10;;;;;;5036607;28;19959;-96
2023/04/28 00:20:24;;;;;;;;;;;11.10;84.10;;;;;;5037393;28;19932;-96
2023/04/28 00:22:51;;;;;;;;;;;11.00;84.20;;;;;;5036737;28;19910;-96
2023/04/28 00:25:19;;;;;;;;;;;10.90;84.50;;;;;;5036446;28;19916;-96
2023/04/28 00:27:45;;;;;;;;;;;10.80;85.00;;;;;;5036081;28;19969;-96
2023/04/28 00:30:18;;;;;;;;;;;10.70;85.90;;;;;;5035453;28;19894;-96
2023/04/28 00:32:47;;;;;;;;;;;10.70;86.00;;;;;;5035658;28;19920;-96
2023/04/28 00:35:17;;;;;;;;;;;10.70;85.50;;;;;;5036447;28;19902;-96
2023/04/28 00:37:55;;;;;;;;;;;10.60;86.40;;;;;;5036631;28;19904;-96
2023/04/28 00:40:22;;;;;;;;;;;10.50;86.60;;;;;;5035647;28;19909;-96
2023/04/28 00:42:49;;;;;;;;;;;10.50;86.40;;;;;;5035604;28;19913;-96
2023/04/28 00:45:19;;;;;;;;;;;10.60;85.60;;;;;;5034980;28;19921;-96
2023/04/28 00:47:47;;;;;;;;;;;10.50;86.00;;;;;;5035492;28;19944;-96
2023/04/28 00:50:15;;;;;;;;;;;10.40;85.40;;;;;;5034291;28;20349;-96
2023/04/28 00:52:42;;;;;;;;;;;10.40;85.50;;;;;;5034553;28;19992;-96
2023/04/28 00:55:08;;;;;;;;;;;10.40;85.80;;;;;;5034880;28;19894;-96
2023/04/28 00:57:41;;;;;;;;;;;10.40;85.30;;;;;;5035168;28;19936;-96
2023/04/28 01:00:11;;;;;;;;;;;10.40;85.10;;;;;;5036519;28;19941;-96
2023/04/28 01:02:38;;;;;;;;;;;10.40;84.70;;;;;;5035353;28;19914;-96
2023/04/28 01:05:13;;;;;;;;;;;10.40;84.80;;;;;;5035211;28;19932;-96
2023/04/28 01:07:44;;;;;;;;;;;10.30;84.90;;;;;;5035346;28;19916;-96
2023/04/28 01:10:11;;;;;;;;;;;10.20;84.70;;;;;;5034674;28;19909;-96
2023/04/28 01:12:38;;;;;;;;;;;10.10;85.00;;;;;;5034584;28;19914;-96
2023/04/28 01:15:04;;;;;;;;;;;10.00;85.50;;;;;;5034923;28;19909;-96
2023/04/28 01:17:33;;;;;;;;;;;9.90;85.70;;;;;;5034055;28;19909;-96
2023/04/28 01:20:00;;;;;;;;;;;10.00;85.90;;;;;;5034840;28;19913;-96
2023/04/28 01:22:26;;;;;;;;;;;10.00;86.10;;;;;;5034637;28;19956;-96
2023/04/28 01:25:00;;;;;;;;;;;10.00;86.00;;;;;;5036034;28;19913;-96
2023/04/28 01:27:31;;;;;;;;;;;10.10;86.50;;;;;;5035456;28;19901;-96
2023/04/28 01:29:58;;;;;;;;;;;10.20;86.00;;;;;;5035782;28;19996;-96
2023/04/28 01:32:27;;;;;;;;;;;10.10;85.30;;;;;;5035537;28;19940;-96
2023/04/28 01:34:53;;;;;;;;;;;10.10;85.10;;;;;;5034896;28;19922;-96
2023/04/28 01:37:21;;;;;;;;;;;10.10;85.40;;;;;;5035216;28;19940;-96
2023/04/28 01:39:51;;;;;;;;;;;10.00;85.80;;;;;;5033858;28;19909;-95
2023/04/28 01:42:23;;;;;;;;;;;10.00;86.00;;;;;;5034736;28;19916;-96
2023/04/28 01:44:49;;;;;;;;;;;9.90;85.30;;;;;;5035289;28;19944;-96
2023/04/28 01:47:17;;;;;;;;;;;9.80;86.20;;;;;;5034724;28;19909;-96
2023/04/28 01:49:47;;;;;;;;;;;9.70;86.60;;;;;;5035786;28;19909;-96
2023/04/28 01:52:13;;;;;;;;;;;9.80;86.60;;;;;;5034911;28;19936;-96
2023/04/28 01:54:41;;;;;;;;;;;9.80;86.40;;;;;;5035376;28;19949;-95
2023/04/28 01:57:07;;;;;;;;;;;9.70;86.90;;;;;;5031734;28;19894;-96
2023/04/28 01:59:34;;;;;;;;;;;9.70;87.50;;;;;;5036893;28;20002;-96
2023/04/28 02:02:06;;;;;;;;;;;9.70;88.10;;;;;;5040289;28;19947;-96
2023/04/28 02:04:35;;;;;;;;;;;9.70;89.00;;;;;;5039473;28;19955;-96
2023/04/28 02:07:07;;;;;;;;;;;9.70;89.20;;;;;;5039993;28;19910;-96
2023/04/28 02:09:37;;;;;;;;;;;9.70;88.90;;;;;;5036919;28;19920;-96
2023/04/28 02:12:04;;;;;;;;;;;9.70;88.70;;;;;;5039473;28;19921;-96
2023/04/28 02:14:33;;;;;;;;;;;9.70;88.60;;;;;;5039170;28;19910;-96
2023/04/28 02:17:02;;;;;;;;;;;9.90;88.50;;;;;;5039471;28;19916;-96
2023/04/28 02:19:29;;;;;;;;;;;10.00;88.30;;;;;;5038866;28;19916;-96
2023/04/28 02:22:00;;;;;;;;;;;10.20;87.70;;;;;;5040637;28;19969;-96
2023/04/28 02:24:29;;;;;;;;;;;10.10;86.80;;;;;;5038710;28;19917;-96
2023/04/28 02:26:59;;;;;;;;;;;10.20;86.80;;;;;;5038783;28;19914;-96
2023/04/28 02:29:29;;;;;;;;;;;10.20;87.60;;;;;;5038285;28;19901;-96
2023/04/28 02:31:56;;;;;;;;;;;10.20;87.80;;;;;;5022513;28;19932;-96
2023/04/28 02:34:27;;;;;;;;;;;10.10;88.20;;;;;;5034832;28;19943;-96
2023/04/28 02:36:56;;;;;;;;;;;10.00;88.30;;;;;;5037677;28;19960;-96
2023/04/28 02:39:28;;;;;;;;;;;10.00;88.50;;;;;;5038642;28;19909;-95
2023/04/28 02:42:04;;;;;;;;;;;10.00;88.30;;;;;;5038880;28;19924;-96
2023/04/28 02:44:32;;;;;;;;;;;10.00;87.90;;;;;;5038574;28;19917;-96
2023/04/28 02:47:04;;;;;;;;;;;10.00;87.40;;;;;;5039300;28;19910;-96
2023/04/28 02:49:35;;;;;;;;;;;10.10;87.80;;;;;;5036305;28;19933;-96
2023/04/28 02:52:02;;;;;;;;;;;10.10;87.60;;;;;;5038267;28;19897;-96
2023/04/28 02:54:29;;;;;;;;;;;10.10;87.50;;;;;;5037181;28;19915;-96
2023/04/28 02:56:57;;;;;;;;;;;10.10;87.50;;;;;;5038542;28;19924;-96
2023/04/28 02:59:28;;;;;;;;;;;10.20;87.50;;;;;;5038188;28;19909;-96
2023/04/28 03:02:00;;;;;;;;;;;10.20;87.10;;;;;;5035972;28;19948;-96
2023/04/28 03:04:31;;;;;;;;;;;10.20;86.70;;;;;;5038669;28;19915;-96
2023/04/28 03:07:04;;;;;;;;;;;10.30;85.90;;;;;;5039329;28;19917;-96
2023/04/28 03:09:35;;;;;;;;;;;10.10;85.10;;;;;;5038719;28;19948;-96
2023/04/28 03:12:04;;;;;;;;;;;10.10;85.90;;;;;;5038190;28;19913;-96
2023/04/28 03:14:37;;;;;;;;;;;10.10;85.70;;;;;;5038793;28;19909;-96
2023/04/28 03:17:15;;;;;;;;;;;10.10;86.10;;;;;;5038554;28;19894;-96
2023/04/28 03:19:42;;;;;;;;;;;10.00;86.10;;;;;;5039198;28;19910;-96
2023/04/28 03:22:11;;;;;;;;;;;10.00;86.30;;;;;;5038174;28;19917;-96
2023/04/28 03:24:41;;;;;;;;;;;9.90;86.50;;;;;;5038529;28;19973;-96
2023/04/28 03:27:13;;;;;;;;;;;10.00;86.80;;;;;;5039048;28;19914;-96
2023/04/28 03:29:41;;;;;;;;;;;9.90;86.60;;;;;;5037807;28;19925;-96
2023/04/28 03:32:08;;;;;;;;;;;9.90;86.80;;;;;;5037510;28;19922;-96
2023/04/28 03:34:41;;;;;;;;;;;9.90;86.50;;;;;;5038276;28;19901;-96
2023/04/28 03:37:11;;;;;;;;;;;10.00;86.20;;;;;;5038340;28;19944;-96
2023/04/28 03:39:40;;;;;;;;;;;10.10;86.20;;;;;;5037686;28;19909;-96
2023/04/28 03:42:09;;;;;;;;;;;10.00;86.00;;;;;;5030523;28;19910;-96
2023/04/28 03:44:36;;;;;;;;;;;10.00;86.20;;;;;;5037898;28;20477;-96
2023/04/28 03:47:04;;;;;;;;;;;10.00;86.10;;;;;;5039239;28;19980;-96
2023/04/28 03:49:32;;;;;;;;;;;9.90;86.10;;;;;;5038211;28;19894;-96
2023/04/28 03:52:00;;;;;;;;;;;9.70;86.60;;;;;;5037528;28;19901;-96
2023/04/28 03:54:37;;;;;;;;;;;9.50;86.90;;;;;;5037543;28;19916;-96
2023/04/28 03:57:07;;;;;;;;;;;9.60;87.30;;;;;;5037393;28;19915;-96
2023/04/28 03:59:35;;;;;;;;;;;9.50;86.90;;;;;;5035963;28;19910;-96
2023/04/28 04:02:03;;;;;;;;;;;9.50;86.90;;;;;;5020894;28;19944;-96
2023/04/28 04:04:30;;;;;;;;;;;9.40;86.80;;;;;;5038236;28;19932;-96
2023/04/28 04:07:01;;;;;;;;;;;9.40;87.40;;;;;;5036906;28;19914;-96
2023/04/28 04:12:06;;;;;;;;;;;9.40;87.60;;;;;;5090298;23;19925;-96
2023/04/28 04:14:35;;;;;;;;;;;9.40;87.50;;;;;;5036356;28;19909;-96
2023/04/28 04:17:05;;;;;;;;;;;9.30;87.80;;;;;;5035750;28;19916;-96
2023/04/28 04:19:31;;;;;;;;;;;9.30;87.50;;;;;;5034003;28;19909;-96
2023/04/28 04:21:57;;;;;;;;;;;9.20;87.30;;;;;;5065697;23;19925;-96
2023/04/28 04:24:23;;;;;;;;;;;9.20;87.40;;;;;;5036793;28;19916;-96
2023/04/28 04:26:49;;;;;;;;;;;9.00;88.10;;;;;;5037525;28;19909;-96
2023/04/28 04:29:17;;;;;;;;;;;8.90;88.30;;;;;;5038368;28;20455;-96
2023/04/28 04:34:19;;;;;;;;;;;8.90;88.40;;;;;;5054108;23;19970;-96
2023/04/28 04:36:46;;;;;;;;;;;8.80;88.20;;;;;;5209715;23;20058;-96
2023/04/28 04:39:13;;;;;;;;;;;8.80;88.40;;;;;;5078956;28;19923;-96
2023/04/28 04:42:03;;;;;;;;;;;8.70;88.60;;;;;;5081115;28;19950;-96
2023/04/28 04:44:47;;;;;;;;;;;8.70;89.00;;;;;;5100217;23;19924;-96
2023/04/28 04:47:19;;;;;;;;;;;8.70;89.90;;;;;;5058304;28;19940;-96
2023/04/28 04:58:10;;;;;;;;;;;8.90;90.80;;;;;;5109062;22;19924;-95
2023/04/28 05:00:46;;;;;;;;;;;8.90;90.40;;;;;;5079796;28;19925;-96
2023/04/28 05:03:20;;;;;;;;;;;9.00;90.20;;;;;;5080338;28;20003;-96
2023/04/28 05:05:49;;;;;;;;;;;9.10;90.00;;;;;;5080258;28;19917;-96
2023/04/28 05:08:22;;;;;;;;;;;9.10;90.10;;;;;;5080679;28;19915;-96
2023/04/28 05:10:49;;;;;;;;;;;9.20;90.60;;;;;;5080150;28;19893;-96
2023/04/28 05:13:23;;;;;;;;;;;9.30;90.40;;;;;;5087554;28;19900;-96
2023/04/28 05:15:50;;;;;;;;;;;9.40;90.30;;;;;;5078413;28;20392;-96
2023/04/28 05:23:43;;;;;;;;;;;10.00;89.50;;;;;;5156285;22;19924;-96
2023/04/28 05:26:12;;;;;;;;;;;10.20;89.10;;;;;;5057976;28;19984;-96
2023/04/28 05:28:42;;;;;;;;;;;10.40;88.80;;;;;;5058312;28;19908;-96
2023/04/28 05:31:08;;;;;;;;;;;10.40;88.20;;;;;;5056478;28;19948;-96
2023/04/28 05:33:35;;;;;;;;;;;10.60;87.50;;;;;;5056650;28;19943;-96
2023/04/28 05:36:00;;;;;;;;;;;10.70;87.40;;;;;;5077169;28;19909;-96
2023/04/28 05:38:26;;;;;;;;;;;10.90;87.60;;;;;;5059697;28;19913;-96
2023/04/28 05:40:53;;;;;;;;;;;11.00;87.20;;;;;;5059600;28;19912;-96
2023/04/28 05:43:20;;;;;;;;;;;11.10;86.90;;;;;;5077787;28;19909;-96
2023/04/28 05:45:49;;;;;;;;;;;11.30;86.50;;;;;;5061709;28;19909;-96
2023/04/28 05:48:18;;;;;;;;;;;11.30;86.30;;;;;;5078160;28;19909;-96
2023/04/28 05:50:47;;;;;;;;;;;11.40;86.30;;;;;;5081125;28;19968;-96
2023/04/28 05:53:16;;;;;;;;;;;11.30;87.20;;;;;;5063057;28;19909;-96
2023/04/28 05:55:44;;;;;;;;;;;11.40;87.40;;;;;;5064298;28;19913;-96
2023/04/28 05:58:16;;;;;;;;;;;11.60;85.70;;;;;;5061882;28;19956;-96
2023/04/28 06:01:01;;;;;;;;;;;11.80;84.40;;;;;;5080474;28;19965;-96
2023/04/28 06:25:46;;;;;;;;;;;13.20;80.40;;;;;;5451509;23;19932;-96
2023/04/28 06:28:13;;;;;;;;;;;13.40;79.50;;;;;;5055846;28;19921;-96
2023/04/28 06:30:40;;;;;;;;;;;13.40;78.50;;;;;;5035599;28;19959;-96
2023/04/28 06:33:05;;;;;;;;;;;13.60;78.00;;;;;;5038113;28;20043;-96
2023/04/28 06:35:34;;;;;;;;;;;13.70;76.00;;;;;;5035592;28;19964;-96
2023/04/28 06:38:01;;;;;;;;;;;13.70;74.90;;;;;;5035818;28;19913;-96
2023/04/28 06:40:26;;;;;;;;;;;13.60;75.70;;;;;;5035360;28;19916;-96
2023/04/28 06:42:52;;;;;;;;;;;13.70;75.90;;;;;;5035397;28;19996;-96
2023/04/28 06:45:18;;;;;;;;;;;13.60;75.70;;;;;;5034199;28;20241;-96
2023/04/28 06:47:43;;;;;;;;;;;13.70;75.40;;;;;;5035043;28;19940;-96
2023/04/28 06:50:09;;;;;;;;;;;13.90;73.90;;;;;;5049154;28;20276;-96
2023/04/28 06:52:37;;;;;;;;;;;13.90;73.80;;;;;;5050455;28;20022;-96
2023/04/28 06:55:05;;;;;;;;;;;14.00;74.00;;;;;;5051244;28;19909;-96
2023/04/28 06:57:34;;;;;;;;;;;14.00;74.20;;;;;;5053929;28;19937;-96
2023/04/28 07:00:01;;;;;;;;;;;14.10;74.20;;;;;;5055790;28;19913;-96
2023/04/28 07:02:28;;;;;;;;;;;14.20;73.90;;;;;;5056781;28;19910;-96
2023/04/28 07:05:03;;;;;;;;;;;14.30;74.00;;;;;;5058228;28;19920;-96
2023/04/28 07:07:37;;;;;;;;;;;14.40;73.50;;;;;;5056838;28;19924;-96
2023/04/28 07:10:04;;;;;;;;;;;14.40;72.80;;;;;;5056387;28;19910;-96
2023/04/28 07:12:30;;;;;;;;;;;14.40;72.60;;;;;;5052206;28;19924;-96
2023/04/28 07:14:56;;;;;;;;;;;14.60;72.10;;;;;;5051077;28;19909;-96
2023/04/28 07:17:22;;;;;;;;;;;14.70;72.00;;;;;;5049010;28;19915;-96
2023/04/28 07:19:49;;;;;;;;;;;14.80;71.60;;;;;;5053107;28;19909;-96
2023/04/28 07:22:16;;;;;;;;;;;14.90;72.00;;;;;;5052698;28;19910;-96
2023/04/28 07:24:42;;;;;;;;;;;15.00;71.50;;;;;;5054693;28;19893;-96
2023/04/28 07:27:08;;;;;;;;;;;15.00;70.50;;;;;;5047316;28;19916;-96
2023/04/28 08:16:10;;;;;;;;;;;16.30;67.90;;;;;;5190665;23;19957;-96
2023/04/28 08:21:14;;;;;;;;;;;16.30;67.20;;;;;;5652790;22;19928;-96
2023/04/28 08:23:46;;;;;;;;;;;16.40;67.30;;;;;;5095709;28;19893;-96
2023/04/28 08:26:15;;;;;;;;;;;16.40;68.00;;;;;;5095643;28;19919;-96
2023/04/28 08:28:42;;;;;;;;;;;16.50;69.40;;;;;;5075009;28;19913;-96
2023/04/28 08:31:13;;;;;;;;;;;16.60;67.80;;;;;;5093831;28;19912;-96
2023/04/28 08:44:12;;;;;;;;;;;17.00;64.30;;;;;;5496888;22;19917;-96
2023/04/28 08:57:27;;;;;;;;;;;17.20;63.70;;;;;;6136976;22;19916;-96
2023/04/28 08:59:52;;;;;;;;;;;17.20;62.60;;;;;;5005175;28;19921;-96
2023/04/28 09:02:18;;;;;;;;;;;17.20;63.90;;;;;;5017894;28;19910;-96
2023/04/28 09:04:46;;;;;;;;;;;17.30;65.10;;;;;;5014771;28;19910;-96
2023/04/28 09:09:47;;;;;;;;;;;17.40;63.50;;;;;;5723632;22;19975;-96
2023/04/28 09:30:47;;;;;;;;;;;17.70;59.30;;;;;;5118141;23;19932;-96
2023/04/28 09:33:16;;;;;;;;;;;17.70;59.50;;;;;;5041699;28;19928;-96
2023/04/28 09:35:48;;;;;;;;;;;17.70;60.60;;;;;;5056563;28;19909;-96
2023/04/28 09:38:20;;;;;;;;;;;17.80;60.90;;;;;;5056080;28;19917;-96
2023/04/28 09:40:57;;;;;;;;;;;17.90;61.30;;;;;;5043222;28;19909;-96
2023/04/28 09:43:24;;;;;;;;;;;18.00;60.00;;;;;;5056485;28;19894;-96
2023/04/28 09:45:52;;;;;;;;;;;18.20;56.60;;;;;;5057357;28;19916;-96
2023/04/28 09:48:35;;;;;;;;;;;18.20;54.60;;;;;;5055633;28;19916;-96
2023/04/28 09:51:13;;;;;;;;;;;18.30;54.20;;;;;;5056216;28;19917;-96
2023/04/28 09:56:18;;;;;;;;;;;18.30;49.10;;;;;;5929047;22;20369;-96
2023/04/28 10:09:34;;;;;;;;;;;18.80;51.00;;;;;;5767392;22;19932;-96
2023/04/28 10:12:04;;;;;;;;;;;18.80;49.20;;;;;;5038082;28;19962;-97
2023/04/28 10:14:38;;;;;;;;;;;18.90;46.60;;;;;;5040062;28;19913;-96
2023/04/28 10:17:11;;;;;;;;;;;18.90;48.90;;;;;;5057314;28;19898;-96
2023/04/28 10:19:55;;;;;;;;;;;19.00;51.90;;;;;;5040655;28;19924;-96
2023/04/28 10:22:31;;;;;;;;;;;19.00;52.00;;;;;;5043849;28;19901;-96
2023/04/28 10:25:10;;;;;;;;;;;19.10;51.40;;;;;;5057881;28;19989;-96
2023/04/28 10:27:44;;;;;;;;;;;18.80;49.20;;;;;;5060076;28;19909;-96
2023/04/28 10:30:18;;;;;;;;;;;18.70;50.00;;;;;;5059403;28;19902;-96
2023/04/28 10:40:54;;;;;;;;;;;18.90;49.50;;;;;;6096125;22;19926;-96
2023/04/28 10:43:48;;;;;;;;;;;19.00;50.40;;;;;;5082622;28;19950;-96
2023/04/28 10:46:22;;;;;;;;;;;19.00;49.60;;;;;;5082970;28;19958;-96
2023/04/28 10:49:01;;;;;;;;;;;19.10;46.00;;;;;;5082250;28;19924;-96
2023/04/28 10:54:07;;;;;;;;;;;19.30;50.00;;;;;;6170009;22;20739;-96
2023/04/28 11:02:19;;;;;;;;;;;19.80;48.90;;;;;;5277860;22;19932;-96
2023/04/28 11:05:08;;;;;;;;;;;19.90;48.40;;;;;;5053714;28;19921;-96
2023/04/28 11:07:34;;;;;;;;;;;19.80;47.90;;;;;;5041798;28;19909;-96
2023/04/28 11:10:00;;;;;;;;;;;19.80;46.40;;;;;;5052591;28;19971;-96
2023/04/28 11:12:26;;;;;;;;;;;19.80;52.60;;;;;;5054407;28;19897;-96
2023/04/28 11:14:52;;;;;;;;;;;19.90;50.40;;;;;;5053502;28;19932;-96
2023/04/28 11:17:32;;;;;;;;;;;20.10;48.20;;;;;;5053528;28;19909;-96
2023/04/28 11:19:59;;;;;;;;;;;20.30;48.40;;;;;;5052877;28;19945;-96
2023/04/28 11:22:34;;;;;;;;;;;20.30;49.10;;;;;;5055191;28;19909;-96
2023/04/28 11:30:22;;;;;;;;;;;20.70;46.70;;;;;;5035653;28;19925;-96
2023/04/28 11:32:48;;;;;;;;;;;20.80;46.90;;;;;;5019092;28;19917;-96
2023/04/28 11:35:18;;;;;;;;;;;20.80;43.40;;;;;;5037032;28;19897;-96
2023/04/28 11:42:58;;;;;;;;;;;20.40;45.60;;;;;;5279466;22;19932;-96
2023/04/28 11:45:37;;;;;;;;;;;20.40;44.30;;;;;;5059391;28;19893;-96
2023/04/28 21:08:00;;;;;;;;;;;13.60;83.50;;;;;;5724478;22;19997;-98
